West Carson, CA

7:26 PM PST on December 25, 2014 (GMT -0800)
Near Western/Lomita | Change Station
CLOSE
Current Station
Personal Weather Station
Location: Harbor City, CA
Elevation: 90 ft
Nearby Weather Stations

Elev 90 ft 33.80 °N, 118.30 °W | Updated 1 minute ago

Clear
Clear
55.1 °F
Feels Like 55.1 °F
N
2.0
Wind Variable Wind from NW
Gusts 8.0 mph

Today
High -- | Low -- °F
--% Chance of Precip.
Yesterday
High -- | Low -- °F
Precip. -- in
6:56 AM 4:50 PM
Waxing Crescent, 21% visible
Pressure 29.89 in
Visibility 20.0 miles
Clouds Clear
Dew Point 22 °F
Humidity 28%
Rainfall 0.00 in
Snow Depth Not available.
UV 0 out of 12
Pollen 6.60 out of 12
Air Quality Not available.
Flu Activity Not available.
METAR KTOA 260247Z 32015KT 20SM SKC 14/M06 A2989

More Conditions Fewer Conditions

Pressure 29.89 in
Visibility 20.0 miles
Clouds Clear
Dew Point 22 °F
Humidity 28%
Rainfall 0.00 in
Snow Depth Not available.
UV 0 out of 12
Pollen 6.60 out of 12
Air Quality Not available.
Flu Activity Not available.
METAR KTOA 260247Z 32015KT 20SM SKC 14/M06 A2989

More Conditions Fewer Conditions

10-Day Weather Forecast

Almanac

Astronomy

Dec. 25, 2014 Rise Set
Actual Time
Civil Twilight
Nautical Twilight
Astronomical Twilight
Moon
Length of Visible Light
Length of Day
Tomorrow will be .
, % of the Moon is Illuminated

Today's Extremes

State Highs State Lows

Community

WunderPhotos

Upload Photos

1,780,529 photos uploaded!

WunderBlogs® & News

Nearby

Air Quality

  Air Quality AQ Index Pollutant
Not available.

Snow Depth

Station Depth Elevation

Earthquake Activity

City Distance Mag. Time & Date
Minimum magnitude displayed is 2.5.

Coastal Water Temperatures

Place Temperature

Nearby Weather Stations